OIII/THR METAR and TAF weather

Enter ICAO airport designator
Station Type Date Time Source
OIII METAR 2021/10/22 19:30 UTC NOAA

OIII 221930Z 00000KT CAVOK 14/M03 Q1027 A3033


Station Type Date Time Source
OIII Decoded METAR 2021/10/22 19:30 UTC NOAA

Tehran-Mehrabad, Iran (OIII) 35-41N 051-21E 1191M
Oct 22, 2021 - 03:30 PM EDT / 2021.10.22 1930 UTC
Wind: Calm:0
Visibility: greater than 7 mile(s):0
Temperature: 57 F (14 C)
Dew Point: 26 F (-3 C)
Relative Humidity: 30%
Pressure (altimeter): 30.33 in. Hg (1027 hPa)
ob: OIII 221930Z 00000KT CAVOK 14/M03 Q1027 A3033
cycle: 19

Station Type Date Time Source
OIII TAF 2021/10/22 18:42 UTC NOAA

TAF OIII 221730Z 2218/2324 16008KT 7000 FEW040 SCT100

Example: see airport list